Time;durP1;ratioP1;P1;durP2;ratioP2;P2;SDS_P1;SDS_P2;PMS_P1;PMS_P2;Temp;Humidity;BMP_temperature;BMP_pressure;BME280_temperature;BME280_humidity;BME280_pressure;Samples;Min_cycle;Max_cycle;Signal;HPM_P1;HPM_P2
2023/08/29 00:01:51;;;;;;;0.00;0.00;;;16.30;99.90;;;;;;5010211;28;20080;-69
2023/08/29 00:04:16;;;;;;;0.00;0.00;;;16.40;99.90;;;;;;4995406;28;20426;-68
2023/08/29 00:06:42;;;;;;;0.00;0.00;;;16.50;99.90;;;;;;4993241;28;20034;-70
2023/08/29 00:09:07;;;;;;;0.00;0.00;;;16.60;99.90;;;;;;5018348;28;20040;-68
2023/08/29 00:11:33;;;;;;;0.00;0.00;;;16.70;99.90;;;;;;5000650;28;20444;-69
2023/08/29 00:13:59;;;;;;;0.00;0.00;;;16.60;99.90;;;;;;5000486;28;20306;-68
2023/08/29 00:16:25;;;;;;;0.00;0.00;;;16.70;99.90;;;;;;4999040;28;20343;-69
2023/08/29 00:18:51;;;;;;;0.00;0.00;;;16.60;99.90;;;;;;5001633;28;20408;-68
2023/08/29 00:21:16;;;;;;;0.00;0.00;;;16.40;99.90;;;;;;5000407;28;20018;-68
2023/08/29 00:23:43;;;;;;;0.00;0.00;;;16.30;99.90;;;;;;4999554;28;20033;-69
2023/08/29 00:26:09;;;;;;;0.00;0.00;;;16.40;99.90;;;;;;5001611;28;20144;-68
2023/08/29 00:28:34;;;;;;;0.05;0.05;;;16.30;99.90;;;;;;5000039;28;20127;-68
2023/08/29 00:31:00;;;;;;;0.00;0.00;;;16.20;99.90;;;;;;5014044;28;20033;-68
2023/08/29 00:33:25;;;;;;;0.00;0.00;;;16.30;99.90;;;;;;4999369;28;20111;-69
2023/08/29 00:35:51;;;;;;;0.00;0.00;;;16.00;99.90;;;;;;4996004;28;20276;-69
2023/08/29 00:38:17;;;;;;;0.00;0.00;;;16.10;99.90;;;;;;4999308;28;20141;-68
2023/08/29 00:40:43;;;;;;;0.00;0.00;;;16.20;99.90;;;;;;4998852;28;20062;-69
2023/08/29 00:43:08;;;;;;;0.00;0.00;;;16.40;99.90;;;;;;4998556;28;20030;-68
2023/08/29 00:45:39;;;;;;;0.00;0.00;;;16.40;99.90;;;;;;4998885;28;20034;-67
2023/08/29 00:48:07;;;;;;;0.00;0.00;;;16.30;99.90;;;;;;5014395;28;20061;-68
2023/08/29 00:50:33;;;;;;;0.00;0.00;;;16.20;99.90;;;;;;4995769;28;20594;-67
2023/08/29 00:53:03;;;;;;;0.00;0.00;;;16.20;99.90;;;;;;5000116;28;20021;-67
2023/08/29 00:55:29;;;;;;;0.00;0.00;;;16.20;99.90;;;;;;5013519;28;20072;-67
2023/08/29 00:57:59;;;;;;;0.00;0.00;;;16.00;99.90;;;;;;4999774;28;20461;-68
2023/08/29 01:00:26;;;;;;;0.00;0.00;;;16.00;99.90;;;;;;4994794;28;20404;-68
2023/08/29 01:02:53;;;;;;;0.40;0.10;;;16.20;99.90;;;;;;4997428;28;20022;-68
2023/08/29 01:05:21;;;;;;;;;;;16.20;99.90;;;;;;5001033;28;20548;-68
2023/08/29 01:07:52;;;;;;;0.00;0.00;;;16.20;99.90;;;;;;4993794;28;19953;-68
2023/08/29 01:10:27;;;;;;;0.32;0.20;;;16.40;99.90;;;;;;4998779;28;20084;-69
2023/08/29 01:13:11;;;;;;;0.25;0.20;;;16.40;99.90;;;;;;4991023;28;20013;-69
2023/08/29 01:15:38;;;;;;;0.03;0.03;;;16.40;99.90;;;;;;5013707;28;20750;-68
2023/08/29 01:18:07;;;;;;;0.00;0.00;;;16.30;99.90;;;;;;5016891;28;20040;-69
2023/08/29 01:20:34;;;;;;;0.00;0.00;;;16.30;99.90;;;;;;4998708;28;20036;-68
2023/08/29 01:23:21;;;;;;;0.00;0.00;;;16.50;99.90;;;;;;4997909;28;20026;-69
2023/08/29 01:26:05;;;;;;;0.00;0.00;;;16.70;99.90;;;;;;4994978;28;20033;-68
2023/08/29 01:28:32;;;;;;;0.00;0.00;;;16.80;99.90;;;;;;5014715;28;20041;-68
2023/08/29 01:30:58;;;;;;;0.00;0.00;;;16.90;99.90;;;;;;5000453;28;20025;-68
2023/08/29 01:33:24;;;;;;;0.00;0.00;;;16.90;99.90;;;;;;4999735;28;20018;-69
2023/08/29 01:35:50;;;;;;;1.45;0.43;;;16.90;99.90;;;;;;4994147;28;20481;-69
2023/08/29 01:38:18;;;;;;;0.00;0.00;;;16.90;99.90;;;;;;4997790;28;20059;-69
2023/08/29 01:40:45;;;;;;;0.00;0.00;;;16.80;99.90;;;;;;5014147;28;20030;-70
2023/08/29 01:43:10;;;;;;;0.00;0.00;;;16.80;99.90;;;;;;4999610;28;20028;-69
2023/08/29 01:45:36;;;;;;;0.00;0.00;;;16.90;99.90;;;;;;5016134;28;20092;-70
2023/08/29 01:48:02;;;;;;;0.00;0.00;;;16.90;99.90;;;;;;4994051;28;20148;-68
2023/08/29 01:50:31;;;;;;;0.00;0.00;;;17.00;99.90;;;;;;5000883;28;20171;-68
2023/08/29 01:52:57;;;;;;;0.00;0.00;;;17.00;99.90;;;;;;5012121;28;20021;-68
2023/08/29 01:55:24;;;;;;;0.00;0.00;;;17.10;99.90;;;;;;5001206;28;20551;-68
2023/08/29 01:57:51;;;;;;;0.00;0.00;;;17.10;99.90;;;;;;5012126;28;20505;-69
2023/08/29 02:00:18;;;;;;;0.00;0.00;;;17.10;99.90;;;;;;5012757;28;20076;-69
2023/08/29 02:02:44;;;;;;;0.00;0.00;;;17.10;99.90;;;;;;5009025;28;21400;-70
2023/08/29 02:05:10;;;;;;;0.00;0.00;;;17.10;99.90;;;;;;5002188;28;20026;-69
2023/08/29 02:07:35;;;;;;;0.00;0.00;;;17.20;99.90;;;;;;5013155;28;20548;-67
2023/08/29 02:10:02;;;;;;;0.00;0.00;;;17.20;99.90;;;;;;4997856;28;20026;-69
2023/08/29 02:12:27;;;;;;;;;;;17.10;99.90;;;;;;5013776;28;20076;-68
2023/08/29 02:14:53;;;;;;;0.00;0.00;;;17.10;99.90;;;;;;4998493;28;19910;-68
2023/08/29 02:17:18;;;;;;;0.00;0.00;;;17.00;99.90;;;;;;4991279;28;20038;-69
2023/08/29 02:19:44;;;;;;;0.00;0.00;;;16.80;99.90;;;;;;4995721;28;20061;-70
2023/08/29 02:22:10;;;;;;;0.20;0.10;;;16.80;99.90;;;;;;4997711;28;20026;-70
2023/08/29 02:24:36;;;;;;;0.00;0.00;;;16.90;99.90;;;;;;4997329;28;20022;-69
2023/08/29 02:27:01;;;;;;;0.00;0.00;;;16.80;99.90;;;;;;5001558;28;20029;-68
2023/08/29 02:29:27;;;;;;;0.00;0.00;;;16.70;99.90;;;;;;4997930;28;20466;-68
2023/08/29 02:31:53;;;;;;;0.00;0.00;;;16.60;99.90;;;;;;4997102;28;20029;-69
2023/08/29 02:34:18;;;;;;;0.10;0.07;;;16.50;99.90;;;;;;4991871;28;20089;-68
2023/08/29 02:36:44;;;;;;;0.00;0.00;;;16.40;99.90;;;;;;5002472;28;20359;-68
2023/08/29 02:39:10;;;;;;;0.00;0.00;;;16.30;99.90;;;;;;5013891;28;20340;-69
2023/08/29 02:41:36;;;;;;;0.00;0.00;;;16.20;99.90;;;;;;4993925;28;20034;-68
2023/08/29 02:44:03;;;;;;;0.00;0.00;;;16.30;99.90;;;;;;4994724;28;20064;-68
2023/08/29 02:46:29;;;;;;;0.00;0.00;;;16.40;99.90;;;;;;5002666;28;20033;-68
2023/08/29 02:48:54;;;;;;;0.00;0.00;;;16.60;99.90;;;;;;4999680;28;20457;-69
2023/08/29 02:51:20;;;;;;;0.00;0.00;;;16.60;99.90;;;;;;4997964;28;20115;-67
2023/08/29 02:53:46;;;;;;;0.00;0.00;;;16.70;99.90;;;;;;4996492;28;20034;-68
2023/08/29 02:56:11;;;;;;;0.00;0.00;;;16.70;99.90;;;;;;4996180;28;20080;-69
2023/08/29 02:58:37;;;;;;;0.00;0.00;;;16.70;99.90;;;;;;4991888;28;20055;-69
2023/08/29 03:01:06;;;;;;;0.38;0.15;;;16.60;99.90;;;;;;4996494;28;20447;-69
2023/08/29 03:03:31;;;;;;;0.00;0.00;;;16.60;99.90;;;;;;4995691;28;20025;-68
2023/08/29 03:05:58;;;;;;;0.00;0.00;;;16.60;99.90;;;;;;5008738;28;20034;-68
2023/08/29 03:08:27;;;;;;;0.00;0.00;;;16.70;99.90;;;;;;4996071;28;20041;-68
2023/08/29 03:10:53;;;;;;;0.00;0.00;;;16.80;99.90;;;;;;5000908;28;20179;-68
2023/08/29 03:13:19;;;;;;;0.00;0.00;;;16.90;99.90;;;;;;4993546;28;20361;-69
2023/08/29 03:15:48;;;;;;;0.00;0.00;;;16.90;99.90;;;;;;4996100;28;20040;-68
2023/08/29 03:18:14;;;;;;;0.00;0.00;;;16.60;99.90;;;;;;4999763;28;20030;-68
2023/08/29 03:20:44;;;;;;;0.00;0.00;;;16.50;99.90;;;;;;4996148;28;20425;-69
2023/08/29 03:23:13;;;;;;;0.00;0.00;;;16.50;99.90;;;;;;4994965;28;20100;-68
2023/08/29 03:25:39;;;;;;;0.00;0.00;;;16.40;99.90;;;;;;5004925;28;20025;-68
2023/08/29 03:28:05;;;;;;;0.00;0.00;;;16.40;99.90;;;;;;4996000;28;20030;-69
2023/08/29 03:30:30;;;;;;;0.00;0.00;;;16.40;99.90;;;;;;4995800;28;20057;-68
2023/08/29 03:32:56;;;;;;;0.00;0.00;;;16.30;99.90;;;;;;4999593;28;20049;-70
2023/08/29 03:35:23;;;;;;;0.00;0.00;;;16.40;99.90;;;;;;4998040;28;20561;-68
2023/08/29 03:37:48;;;;;;;0.00;0.00;;;16.40;99.90;;;;;;4995571;28;20457;-68
2023/08/29 03:40:14;;;;;;;0.00;0.00;;;16.30;99.90;;;;;;4995931;28;20125;-68
2023/08/29 03:42:40;;;;;;;0.00;0.00;;;16.30;99.90;;;;;;4993977;28;20065;-70
2023/08/29 03:45:07;;;;;;;0.00;0.00;;;16.40;99.90;;;;;;5015313;28;20065;-69
2023/08/29 03:47:33;;;;;;;0.00;0.00;;;16.30;99.90;;;;;;5000398;28;20038;-68
2023/08/29 03:49:59;;;;;;;0.00;0.00;;;16.40;99.90;;;;;;4997200;28;20025;-68
2023/08/29 03:52:26;;;;;;;0.00;0.00;;;16.50;99.90;;;;;;4999764;28;20029;-68
2023/08/29 03:54:56;;;;;;;0.10;0.10;;;16.60;99.90;;;;;;4998487;28;20034;-68
2023/08/29 03:57:28;;;;;;;0.00;0.00;;;16.60;99.90;;;;;;5000814;28;20393;-68
2023/08/29 03:59:54;;;;;;;0.00;0.00;;;16.60;99.90;;;;;;4996592;28;20441;-69
2023/08/29 04:02:20;;;;;;;0.00;0.00;;;16.60;99.90;;;;;;4999380;28;20028;-68
2023/08/29 04:04:52;;;;;;;0.00;0.00;;;16.70;99.90;;;;;;4999801;28;20025;-73
2023/08/29 04:07:17;;;;;;;0.00;0.00;;;16.70;99.90;;;;;;5001234;28;20125;-73
2023/08/29 04:09:43;;;;;;;0.00;0.00;;;16.80;99.90;;;;;;5001379;28;20101;-72
2023/08/29 04:12:10;;;;;;;0.15;0.15;;;16.90;99.90;;;;;;5014813;28;20030;-70
2023/08/29 04:14:36;;;;;;;0.00;0.00;;;16.90;99.90;;;;;;4995028;28;20532;-69
2023/08/29 04:17:02;;;;;;;0.00;0.00;;;16.90;99.90;;;;;;4999181;28;20029;-69
2023/08/29 04:19:27;;;;;;;0.00;0.00;;;16.90;99.90;;;;;;5013072;28;20396;-71
2023/08/29 04:21:53;;;;;;;0.00;0.00;;;16.80;99.90;;;;;;5002504;28;20121;-70
2023/08/29 04:24:19;;;;;;;0.00;0.00;;;16.80;99.90;;;;;;4996168;28;20078;-71
2023/08/29 04:26:44;;;;;;;0.00;0.00;;;16.90;99.90;;;;;;5003146;28;20029;-71
2023/08/29 04:29:10;;;;;;;0.00;0.00;;;16.90;99.90;;;;;;4998144;28;20497;-70
2023/08/29 04:31:35;;;;;;;0.00;0.00;;;17.00;99.90;;;;;;4995634;28;20057;-70
2023/08/29 04:34:01;;;;;;;0.60;0.25;;;17.00;99.90;;;;;;4999507;28;20040;-70
2023/08/29 04:36:27;;;;;;;0.00;0.00;;;17.00;99.90;;;;;;5015010;28;20246;-70
2023/08/29 04:38:53;;;;;;;0.00;0.00;;;17.00;99.90;;;;;;4999990;28;20452;-71
2023/08/29 04:41:19;;;;;;;0.00;0.00;;;17.00;99.90;;;;;;4995266;28;20029;-68
2023/08/29 04:43:45;;;;;;;0.00;0.00;;;17.00;99.90;;;;;;4998404;28;20389;-69
2023/08/29 04:46:11;;;;;;;0.00;0.00;;;17.10;99.90;;;;;;5010042;28;20026;-69
2023/08/29 04:48:37;;;;;;;0.00;0.00;;;17.00;99.90;;;;;;4997264;28;20026;-70
2023/08/29 04:51:06;;;;;;;0.03;0.03;;;17.10;99.90;;;;;;4999009;28;20037;-70
2023/08/29 04:53:32;;;;;;;0.28;0.10;;;17.00;99.90;;;;;;4999082;28;20026;-70
2023/08/29 04:55:59;;;;;;;;;;;17.00;99.90;;;;;;5003496;28;20096;-71
2023/08/29 04:58:25;;;;;;;0.00;0.00;;;17.00;99.90;;;;;;5002201;28;19906;-69
2023/08/29 05:00:50;;;;;;;0.00;0.00;;;17.00;99.90;;;;;;4999799;28;20044;-66
2023/08/29 05:03:17;;;;;;;0.00;0.00;;;17.00;99.90;;;;;;5013677;28;20036;-65
2023/08/29 05:05:46;;;;;;;;;;;17.00;99.90;;;;;;4998147;28;20052;-67
2023/08/29 05:08:12;;;;;;;0.00;0.00;;;17.00;99.90;;;;;;4994271;28;19917;-69
2023/08/29 05:10:37;;;;;;;0.00;0.00;;;17.00;99.90;;;;;;4997667;28;20148;-68
2023/08/29 05:13:03;;;;;;;0.10;0.10;;;17.10;99.90;;;;;;4993410;28;20527;-67
2023/08/29 05:15:30;;;;;;;0.00;0.00;;;17.20;99.90;;;;;;5000943;28;20279;-67
2023/08/29 05:17:56;;;;;;;0.00;0.00;;;17.20;99.90;;;;;;5000584;28;20030;-69
2023/08/29 05:20:22;;;;;;;0.00;0.00;;;17.30;99.90;;;;;;4994961;28;20451;-70
2023/08/29 05:22:47;;;;;;;0.00;0.00;;;17.40;99.90;;;;;;5004290;28;20026;-70
2023/08/29 05:25:13;;;;;;;0.00;0.00;;;17.40;99.90;;;;;;4997051;28;20272;-70
2023/08/29 05:27:39;;;;;;;0.00;0.00;;;17.50;99.90;;;;;;4995472;28;20044;-70
2023/08/29 05:30:05;;;;;;;0.00;0.00;;;17.50;99.90;;;;;;4998870;28;20763;-70
2023/08/29 05:32:31;;;;;;;;;;;17.50;99.90;;;;;;5000432;28;20033;-70
2023/08/29 05:34:57;;;;;;;0.00;0.00;;;17.60;99.90;;;;;;4997695;28;19916;-70
2023/08/29 05:37:23;;;;;;;0.00;0.00;;;17.60;99.90;;;;;;4998187;28;20080;-70
2023/08/29 05:39:49;;;;;;;0.00;0.00;;;17.60;99.90;;;;;;4999656;28;20437;-70
2023/08/29 05:42:14;;;;;;;0.00;0.00;;;17.50;99.90;;;;;;4995222;28;20030;-70
2023/08/29 05:44:40;;;;;;;0.00;0.00;;;17.60;99.90;;;;;;5000591;28;20133;-70
2023/08/29 05:47:06;;;;;;;0.00;0.00;;;17.70;99.90;;;;;;4998428;28;20026;-70
2023/08/29 05:49:31;;;;;;;0.00;0.00;;;17.70;99.90;;;;;;4997013;28;20034;-70
2023/08/29 05:51:57;;;;;;;0.00;0.00;;;17.70;99.90;;;;;;4997809;28;20037;-69
2023/08/29 05:54:23;;;;;;;0.00;0.00;;;17.70;99.90;;;;;;4993317;28;20731;-70
2023/08/29 05:56:48;;;;;;;0.00;0.00;;;17.70;99.90;;;;;;4998162;28;20034;-70
2023/08/29 05:59:15;;;;;;;0.00;0.00;;;17.80;99.90;;;;;;4998414;28;20033;-71
2023/08/29 06:01:40;;;;;;;;;;;17.80;99.90;;;;;;4995517;28;20014;-70
2023/08/29 06:04:06;;;;;;;0.00;0.00;;;17.90;99.90;;;;;;5000445;28;19931;-70
2023/08/29 06:06:32;;;;;;;0.00;0.00;;;17.80;99.90;;;;;;4997975;28;20041;-69
2023/08/29 06:08:59;;;;;;;0.25;0.10;;;17.90;99.90;;;;;;4996525;28;20566;-70
2023/08/29 06:11:26;;;;;;;0.00;0.00;;;17.80;99.90;;;;;;5013244;28;20022;-70
2023/08/29 06:13:51;;;;;;;0.08;0.03;;;17.80;99.90;;;;;;5010899;28;20087;-69
2023/08/29 06:16:17;;;;;;;0.00;0.00;;;17.80;99.90;;;;;;4998076;28;20021;-70
2023/08/29 06:18:43;;;;;;;0.00;0.00;;;17.80;99.90;;;;;;4993183;28;20045;-70
2023/08/29 06:21:09;;;;;;;0.00;0.00;;;17.80;99.90;;;;;;4996917;28;20040;-70
2023/08/29 06:23:35;;;;;;;0.00;0.00;;;17.80;99.90;;;;;;4996805;28;20058;-70
2023/08/29 06:26:02;;;;;;;0.00;0.00;;;17.80;99.90;;;;;;4995089;28;20045;-71
2023/08/29 06:28:28;;;;;;;0.00;0.00;;;17.90;99.90;;;;;;5002501;28;20129;-70
2023/08/29 06:30:54;;;;;;;0.00;0.00;;;17.80;99.90;;;;;;4997886;28;20770;-70
2023/08/29 06:33:20;;;;;;;0.00;0.00;;;17.80;99.90;;;;;;4993458;28;20014;-69
2023/08/29 06:35:45;;;;;;;0.10;0.10;;;17.80;99.90;;;;;;5001053;28;20520;-69
2023/08/29 06:38:11;;;;;;;0.00;0.00;;;17.80;99.90;;;;;;4992677;28;20165;-70
2023/08/29 06:40:37;;;;;;;0.00;0.00;;;17.80;99.90;;;;;;4998642;28;20041;-70
2023/08/29 06:43:02;;;;;;;0.00;0.00;;;17.80;99.90;;;;;;4990339;28;20173;-71
2023/08/29 06:45:28;;;;;;;0.00;0.00;;;17.80;99.90;;;;;;4998671;28;20029;-69
2023/08/29 06:47:54;;;;;;;0.00;0.00;;;17.90;99.90;;;;;;5013119;28;20113;-70
2023/08/29 06:50:19;;;;;;;0.00;0.00;;;18.00;99.90;;;;;;4996694;28;20018;-69
2023/08/29 06:52:45;;;;;;;0.00;0.00;;;18.00;99.90;;;;;;4998232;28;20033;-69
2023/08/29 06:55:11;;;;;;;0.00;0.00;;;18.10;99.90;;;;;;4999450;28;20026;-70
2023/08/29 06:57:36;;;;;;;0.00;0.00;;;18.20;99.90;;;;;;4997291;28;20037;-69
2023/08/29 07:00:03;;;;;;;0.00;0.00;;;18.30;99.90;;;;;;4998697;28;20026;-71
2023/08/29 07:02:29;;;;;;;0.00;0.00;;;18.30;99.90;;;;;;5017824;28;20037;-69
2023/08/29 07:04:55;;;;;;;0.00;0.00;;;18.30;99.90;;;;;;4996117;28;20026;-70
2023/08/29 07:07:21;;;;;;;0.00;0.00;;;18.30;99.90;;;;;;4998136;28;20044;-69
2023/08/29 07:09:47;;;;;;;0.00;0.00;;;18.30;99.90;;;;;;5011768;28;20026;-69
2023/08/29 07:12:12;;;;;;;0.00;0.00;;;18.30;99.90;;;;;;4994380;28;20026;-69
2023/08/29 07:14:38;;;;;;;0.00;0.00;;;18.30;99.90;;;;;;4991875;28;20057;-69
2023/08/29 07:17:05;;;;;;;0.00;0.00;;;18.20;99.90;;;;;;4996099;28;20120;-70
2023/08/29 07:19:30;;;;;;;0.00;0.00;;;18.20;99.90;;;;;;4997398;28;20026;-69
2023/08/29 07:21:56;;;;;;;0.17;0.17;;;18.20;99.90;;;;;;5011261;28;20033;-69
2023/08/29 07:24:22;;;;;;;0.00;0.00;;;18.30;99.90;;;;;;4998520;28;20030;-69
2023/08/29 07:26:47;;;;;;;0.00;0.00;;;18.50;99.90;;;;;;4996155;28;20022;-69
2023/08/29 07:29:13;;;;;;;0.00;0.00;;;18.70;99.90;;;;;;4997307;28;20037;-70
2023/08/29 07:31:39;;;;;;;0.00;0.00;;;18.80;99.90;;;;;;5000479;28;20033;-70
2023/08/29 07:34:04;;;;;;;0.00;0.00;;;18.90;99.90;;;;;;4995915;28;20018;-69
2023/08/29 07:36:30;;;;;;;0.00;0.00;;;19.10;99.90;;;;;;4999810;28;20156;-70
2023/08/29 07:38:56;;;;;;;0.00;0.00;;;19.20;99.90;;;;;;4995644;28;20030;-69
2023/08/29 07:41:23;;;;;;;0.00;0.00;;;19.40;99.90;;;;;;4995843;28;20033;-69
2023/08/29 07:43:48;;;;;;;0.00;0.00;;;19.40;99.90;;;;;;4990157;28;20148;-69
2023/08/29 07:46:14;;;;;;;0.00;0.00;;;19.50;99.90;;;;;;4997066;28;20093;-69
2023/08/29 07:48:40;;;;;;;0.00;0.00;;;19.40;99.90;;;;;;4995910;28;20029;-70
2023/08/29 07:51:05;;;;;;;0.00;0.00;;;19.30;99.90;;;;;;5010738;28;20029;-70
2023/08/29 07:53:31;;;;;;;0.00;0.00;;;19.10;99.90;;;;;;4996457;28;20099;-69
2023/08/29 07:55:57;;;;;;;0.00;0.00;;;19.00;99.90;;;;;;4995801;28;20034;-70
2023/08/29 07:58:23;;;;;;;0.00;0.00;;;18.90;99.90;;;;;;4997280;28;20492;-70
2023/08/29 08:00:48;;;;;;;0.00;0.00;;;18.80;99.90;;;;;;4992051;28;20034;-70
2023/08/29 08:03:14;;;;;;;0.00;0.00;;;18.60;99.90;;;;;;4996314;28;20697;-70
2023/08/29 08:05:40;;;;;;;0.00;0.00;;;18.50;99.90;;;;;;4992025;28;20370;-70
2023/08/29 08:08:06;;;;;;;0.00;0.00;;;18.50;99.90;;;;;;4995737;28;20073;-70
2023/08/29 08:10:32;;;;;;;0.00;0.00;;;18.40;99.90;;;;;;4995878;28;20679;-70
2023/08/29 08:12:57;;;;;;;0.00;0.00;;;18.40;99.90;;;;;;4995942;28;20045;-70
2023/08/29 08:15:23;;;;;;;0.00;0.00;;;18.40;99.90;;;;;;4996223;28;20097;-70
2023/08/29 08:17:49;;;;;;;0.00;0.00;;;18.30;99.90;;;;;;4998192;28;20083;-70
2023/08/29 08:20:15;;;;;;;0.00;0.00;;;18.30;99.90;;;;;;4995908;28;20607;-70
2023/08/29 08:22:41;;;;;;;0.00;0.00;;;18.20;99.90;;;;;;4991493;28;20022;-70
2023/08/29 08:25:09;;;;;;;0.00;0.00;;;18.20;99.90;;;;;;4996258;28;20030;-70
2023/08/29 08:27:36;;;;;;;0.00;0.00;;;18.20;99.90;;;;;;4993389;28;20865;-70
2023/08/29 08:30:03;;;;;;;;;;;18.30;99.90;;;;;;5001052;28;20075;-71
2023/08/29 08:32:30;;;;;;;0.00;0.00;;;18.30;99.90;;;;;;4999506;28;19913;-70
2023/08/29 08:34:56;;;;;;;0.00;0.00;;;18.40;99.90;;;;;;4996777;28;20018;-66
2023/08/29 08:37:21;;;;;;;0.00;0.00;;;18.50;99.90;;;;;;4999668;28;20083;-65
2023/08/29 08:39:47;;;;;;;0.10;0.10;;;18.40;99.90;;;;;;4994705;28;20485;-66
2023/08/29 08:42:15;;;;;;;0.00;0.00;;;18.30;99.90;;;;;;4996433;28;20453;-66
2023/08/29 08:44:41;;;;;;;0.00;0.00;;;18.10;99.90;;;;;;4996753;28;20051;-67
2023/08/29 08:47:08;;;;;;;0.00;0.00;;;18.10;99.90;;;;;;4996642;28;20030;-66
2023/08/29 08:49:33;;;;;;;;;;;18.00;99.90;;;;;;4999889;28;20109;-65
2023/08/29 08:52:00;;;;;;;0.00;0.00;;;18.00;99.90;;;;;;4998580;28;19997;-66
2023/08/29 08:54:26;;;;;;;0.00;0.00;;;18.00;99.90;;;;;;4995230;28;20449;-66
2023/08/29 08:56:52;;;;;;;0.00;0.00;;;18.00;99.90;;;;;;5016132;28;20079;-65
2023/08/29 08:59:18;;;;;;;0.00;0.00;;;18.10;99.90;;;;;;4998581;28;20033;-66
2023/08/29 09:01:44;;;;;;;0.00;0.00;;;18.10;99.90;;;;;;4998438;28;20955;-65
2023/08/29 09:04:10;;;;;;;0.00;0.00;;;18.10;99.90;;;;;;5000052;28;20188;-65
2023/08/29 09:06:35;;;;;;;0.00;0.00;;;18.10;99.90;;;;;;4996355;28;20037;-67
2023/08/29 09:09:24;;;;;;;0.00;0.00;;;18.00;99.90;;;;;;5015099;28;20034;-65
2023/08/29 09:11:55;;;;;;;0.00;0.00;;;17.90;99.90;;;;;;4992762;28;20018;-65
2023/08/29 09:14:22;;;;;;;0.00;0.00;;;17.90;99.90;;;;;;4997506;28;20098;-65
2023/08/29 09:16:53;;;;;;;0.00;0.00;;;18.00;99.90;;;;;;4997698;28;20021;-66
2023/08/29 09:19:21;;;;;;;0.00;0.00;;;18.00;99.90;;;;;;4997755;28;20492;-66
2023/08/29 09:21:48;;;;;;;0.00;0.00;;;18.30;99.90;;;;;;4998068;28;20116;-66
2023/08/29 09:24:13;;;;;;;0.00;0.00;;;18.40;99.90;;;;;;4991825;28;20026;-66
2023/08/29 09:26:40;;;;;;;0.13;0.13;;;18.50;99.90;;;;;;4998068;28;20032;-66
2023/08/29 09:29:17;;;;;;;0.00;0.00;;;18.50;99.90;;;;;;4993401;28;20062;-66
2023/08/29 09:31:43;;;;;;;;;;;18.60;99.90;;;;;;4996761;28;20017;-67
2023/08/29 09:34:21;;;;;;;0.00;0.00;;;18.60;99.90;;;;;;4997683;28;19910;-67
2023/08/29 09:36:46;;;;;;;0.00;0.00;;;18.60;99.90;;;;;;4996848;28;20101;-66
2023/08/29 09:39:13;;;;;;;0.00;0.00;;;18.80;99.90;;;;;;4996795;28;20571;-65
2023/08/29 09:41:39;;;;;;;0.00;0.00;;;19.00;99.90;;;;;;4997375;28;20044;-64
2023/08/29 09:44:17;;;;;;;0.00;0.00;;;19.20;99.90;;;;;;4995011;28;20022;-68
2023/08/29 09:46:48;;;;;;;0.00;0.00;;;19.10;99.90;;;;;;4997792;28;20058;-66
2023/08/29 09:49:13;;;;;;;0.00;0.00;;;18.90;99.90;;;;;;4997270;28;20028;-67
2023/08/29 09:51:40;;;;;;;0.00;0.00;;;18.80;99.90;;;;;;4997006;28;20421;-67
2023/08/29 09:54:07;;;;;;;;;;;18.60;99.90;;;;;;4993530;28;20028;-68
2023/08/29 09:56:34;;;;;;;0.00;0.00;;;18.50;99.90;;;;;;4997174;28;19932;-66
2023/08/29 09:59:02;;;;;;;0.00;0.00;;;18.50;99.90;;;;;;5013889;28;20120;-66
2023/08/29 10:01:29;;;;;;;0.00;0.00;;;18.40;99.90;;;;;;4999180;28;20041;-66
2023/08/29 10:03:59;;;;;;;0.00;0.00;;;18.40;99.90;;;;;;4997506;28;20214;-67
2023/08/29 10:06:26;;;;;;;0.00;0.00;;;18.40;99.90;;;;;;4994968;28;21072;-66
2023/08/29 10:09:00;;;;;;;0.00;0.00;;;18.40;99.90;;;;;;4997008;28;20370;-66
2023/08/29 10:11:26;;;;;;;0.00;0.00;;;18.20;99.90;;;;;;5011104;28;20388;-67
2023/08/29 10:13:53;;;;;;;0.00;0.00;;;18.10;99.90;;;;;;4995378;28;20026;-66
2023/08/29 10:16:20;;;;;;;0.00;0.00;;;17.90;99.90;;;;;;4993314;28;20757;-68
2023/08/29 10:18:46;;;;;;;0.00;0.00;;;17.90;99.90;;;;;;4998302;28;20495;-66
2023/08/29 10:21:14;;;;;;;0.00;0.00;;;17.90;99.90;;;;;;5001271;28;20172;-67
2023/08/29 10:23:40;;;;;;;0.00;0.00;;;18.10;99.90;;;;;;4993701;28;20026;-66
2023/08/29 10:26:06;;;;;;;0.00;0.00;;;18.30;99.90;;;;;;4998222;28;20026;-66
2023/08/29 10:28:33;;;;;;;0.00;0.00;;;18.30;99.90;;;;;;5011595;28;20044;-67
2023/08/29 10:31:04;;;;;;;0.00;0.00;;;18.20;99.90;;;;;;4997460;28;20101;-68
2023/08/29 10:33:31;;;;;;;0.00;0.00;;;18.30;99.90;;;;;;5011671;28;20025;-67
2023/08/29 10:35:57;;;;;;;0.00;0.00;;;18.20;99.90;;;;;;4996830;28;20022;-67
2023/08/29 10:38:26;;;;;;;0.00;0.00;;;18.40;99.90;;;;;;4994545;28;20466;-67
2023/08/29 10:41:06;;;;;;;0.00;0.00;;;18.70;99.90;;;;;;4997385;28;20037;-66
2023/08/29 10:43:32;;;;;;;0.00;0.00;;;19.00;99.90;;;;;;5011170;28;20607;-67
2023/08/29 10:46:12;;;;;;;0.00;0.00;;;19.20;99.90;;;;;;4997111;28;20025;-68
2023/08/29 10:48:43;;;;;;;0.00;0.00;;;19.20;99.90;;;;;;5000410;28;20026;-66
2023/08/29 10:51:19;;;;;;;0.20;0.20;;;19.20;99.90;;;;;;4996540;28;20037;-66
2023/08/29 10:54:05;;;;;;;0.00;0.00;;;19.30;99.90;;;;;;4992935;28;20524;-68
2023/08/29 10:56:40;;;;;;;0.00;0.00;;;19.10;99.90;;;;;;4995194;28;20104;-67
2023/08/29 10:59:06;;;;;;;0.15;0.15;;;18.90;99.90;;;;;;4995746;28;20022;-69
2023/08/29 11:01:33;;;;;;;0.00;0.00;;;18.80;99.90;;;;;;4998379;28;20025;-67
2023/08/29 11:04:20;;;;;;;0.00;0.00;;;18.70;99.90;;;;;;5006939;28;20037;-67
2023/08/29 11:06:56;;;;;;;0.00;0.00;;;18.60;99.90;;;;;;4995806;28;20050;-67
2023/08/29 11:09:23;;;;;;;0.00;0.00;;;18.50;99.90;;;;;;4992254;28;20397;-67
2023/08/29 11:12:08;;;;;;;0.00;0.00;;;18.70;99.90;;;;;;4994324;28;20097;-66
2023/08/29 11:14:53;;;;;;;0.00;0.00;;;18.80;99.90;;;;;;5011310;28;20018;-66
2023/08/29 11:17:25;;;;;;;0.00;0.00;;;18.90;99.90;;;;;;5008989;28;20026;-67
2023/08/29 11:19:56;;;;;;;0.00;0.00;;;18.90;99.90;;;;;;5007691;28;20041;-67
2023/08/29 11:22:25;;;;;;;0.00;0.00;;;18.90;99.90;;;;;;4995955;28;20026;-67
2023/08/29 11:24:55;;;;;;;0.00;0.00;;;18.90;99.90;;;;;;5010422;28;20084;-66
2023/08/29 11:27:31;;;;;;;0.00;0.00;;;18.90;99.90;;;;;;5011210;28;20029;-68
2023/08/29 11:29:59;;;;;;;0.00;0.00;;;18.80;99.90;;;;;;4996887;28;20049;-68
2023/08/29 11:32:27;;;;;;;0.20;0.08;;;18.70;99.90;;;;;;4989649;28;20041;-68
2023/08/29 11:34:53;;;;;;;0.00;0.00;;;18.70;99.90;;;;;;4993484;28;20042;-68
2023/08/29 11:37:21;;;;;;;;;;;18.70;99.90;;;;;;4991828;28;20014;-67
2023/08/29 11:39:58;;;;;;;0.00;0.00;;;19.00;99.90;;;;;;4998146;28;19917;-67
2023/08/29 11:42:28;;;;;;;0.00;0.00;;;19.00;99.90;;;;;;5004109;28;20133;-67
2023/08/29 11:44:54;;;;;;;0.00;0.00;;;19.00;99.90;;;;;;4994506;28;20485;-67
2023/08/29 11:47:20;;;;;;;0.00;0.00;;;18.90;99.90;;;;;;5010547;28;20022;-67
2023/08/29 11:49:50;;;;;;;0.00;0.00;;;18.90;99.90;;;;;;4997069;28;20034;-67
2023/08/29 11:52:16;;;;;;;0.00;0.00;;;18.80;99.90;;;;;;4995908;28;20025;-68
2023/08/29 11:54:46;;;;;;;;;;;18.80;99.90;;;;;;4992419;28;20053;-68
2023/08/29 11:57:13;;;;;;;0.00;0.00;;;18.80;99.90;;;;;;4995919;28;19992;-66
2023/08/29 11:59:42;;;;;;;0.00;0.00;;;18.80;99.90;;;;;;4995119;28;20109;-66
2023/08/29 12:02:10;;;;;;;0.10;0.00;;;18.70;99.90;;;;;;4999334;28;20492;-66
2023/08/29 12:04:41;;;;;;;0.00;0.00;;;18.70;99.90;;;;;;4999972;28;20025;-68
2023/08/29 12:07:15;;;;;;;0.00;0.00;;;18.60;99.90;;;;;;5003458;28;20542;-67
2023/08/29 12:09:42;;;;;;;0.00;0.00;;;18.60;99.90;;;;;;4999227;28;20477;-67
2023/08/29 12:12:26;;;;;;;0.00;0.00;;;18.80;99.90;;;;;;4996206;28;20030;-67
2023/08/29 12:14:52;;;;;;;0.00;0.00;;;18.70;99.90;;;;;;5010248;28;20136;-67
2023/08/29 12:17:18;;;;;;;0.00;0.00;;;18.70;99.90;;;;;;4999916;28;20105;-67
2023/08/29 12:19:47;;;;;;;0.00;0.00;;;18.60;99.90;;;;;;4997803;28;20821;-67
2023/08/29 12:22:13;;;;;;;0.00;0.00;;;18.60;99.90;;;;;;4998434;28;20026;-67
2023/08/29 12:24:39;;;;;;;0.00;0.00;;;18.50;99.90;;;;;;4994068;28;20374;-68
2023/08/29 12:27:06;;;;;;;0.00;0.00;;;18.70;99.90;;;;;;5002068;28;20026;-66
2023/08/29 12:29:32;;;;;;;0.00;0.00;;;18.70;99.90;;;;;;4995576;28;20121;-67
2023/08/29 12:31:58;;;;;;;0.00;0.00;;;18.80;99.90;;;;;;5001119;28;20062;-67
2023/08/29 12:34:23;;;;;;;0.00;0.00;;;18.90;99.90;;;;;;4998943;28;20053;-66
2023/08/29 12:36:49;;;;;;;0.00;0.00;;;19.10;99.90;;;;;;4994098;28;20054;-67
2023/08/29 12:39:15;;;;;;;0.00;0.00;;;19.30;99.90;;;;;;5013133;28;20026;-67
2023/08/29 12:41:41;;;;;;;0.00;0.00;;;19.50;99.90;;;;;;4998008;28;20034;-68
2023/08/29 12:44:07;;;;;;;0.00;0.00;;;19.70;99.90;;;;;;4995793;28;20425;-66
2023/08/29 12:46:34;;;;;;;0.00;0.00;;;19.70;99.90;;;;;;4997288;28;20022;-67
2023/08/29 12:49:02;;;;;;;0.00;0.00;;;19.60;99.90;;;;;;4995048;28;20105;-66
2023/08/29 12:51:29;;;;;;;0.00;0.00;;;19.70;99.90;;;;;;4996493;28;20045;-67